sensor_id;sensor_type;location;lat;lon;timestamp;P1;durP1;ratioP1;P2;durP2;ratioP2
36663;SDS011;53333;51.976;20.144;2022-07-12T00:02:23;3.35;;;2.38;;
36663;SDS011;53333;51.976;20.144;2022-07-12T00:07:32;4.00;;;2.20;;
36663;SDS011;53333;51.976;20.144;2022-07-12T00:10:05;5.07;;;2.40;;
36663;SDS011;53333;51.976;20.144;2022-07-12T00:12:40;7.20;;;2.40;;
36663;SDS011;53333;51.976;20.144;2022-07-12T00:17:47;3.72;;;2.40;;
36663;SDS011;53333;51.976;20.144;2022-07-12T00:20:21;4.40;;;2.63;;
36663;SDS011;53333;51.976;20.144;2022-07-12T00:22:57;3.83;;;2.63;;
36663;SDS011;53333;51.976;20.144;2022-07-12T00:25:33;6.50;;;3.00;;
36663;SDS011;53333;51.976;20.144;2022-07-12T00:28:07;6.70;;;2.83;;
36663;SDS011;53333;51.976;20.144;2022-07-12T00:30:41;8.60;;;4.65;;
36663;SDS011;53333;51.976;20.144;2022-07-12T00:35:48;8.25;;;2.88;;
36663;SDS011;53333;51.976;20.144;2022-07-12T00:40:57;4.25;;;3.10;;
36663;SDS011;53333;51.976;20.144;2022-07-12T00:46:04;10.27;;;2.60;;
36663;SDS011;53333;51.976;20.144;2022-07-12T00:48:37;4.00;;;2.40;;
36663;SDS011;53333;51.976;20.144;2022-07-12T00:53:46;3.55;;;2.25;;
36663;SDS011;53333;51.976;20.144;2022-07-12T00:56:20;5.85;;;2.92;;
36663;SDS011;53333;51.976;20.144;2022-07-12T01:01:27;8.20;;;3.40;;
36663;SDS011;53333;51.976;20.144;2022-07-12T01:04:01;3.28;;;2.50;;
36663;SDS011;53333;51.976;20.144;2022-07-12T01:06:35;6.35;;;3.03;;
36663;SDS011;53333;51.976;20.144;2022-07-12T01:09:10;4.95;;;2.75;;
36663;SDS011;53333;51.976;20.144;2022-07-12T01:11:44;6.60;;;3.70;;
36663;SDS011;53333;51.976;20.144;2022-07-12T01:14:18;4.05;;;2.67;;
36663;SDS011;53333;51.976;20.144;2022-07-12T01:16:53;5.53;;;3.22;;
36663;SDS011;53333;51.976;20.144;2022-07-12T01:19:26;4.25;;;2.63;;
36663;SDS011;53333;51.976;20.144;2022-07-12T01:22:01;5.47;;;3.00;;
36663;SDS011;53333;51.976;20.144;2022-07-12T01:24:40;9.07;;;2.65;;
36663;SDS011;53333;51.976;20.144;2022-07-12T01:27:14;4.43;;;2.70;;
36663;SDS011;53333;51.976;20.144;2022-07-12T01:32:21;8.13;;;3.55;;
36663;SDS011;53333;51.976;20.144;2022-07-12T01:34:59;6.13;;;2.83;;
36663;SDS011;53333;51.976;20.144;2022-07-12T01:37:34;5.13;;;2.50;;
36663;SDS011;53333;51.976;20.144;2022-07-12T01:40:11;3.47;;;2.72;;
36663;SDS011;53333;51.976;20.144;2022-07-12T01:42:46;5.28;;;2.20;;
36663;SDS011;53333;51.976;20.144;2022-07-12T01:45:21;6.72;;;2.72;;
36663;SDS011;53333;51.976;20.144;2022-07-12T01:50:30;6.03;;;2.45;;
36663;SDS011;53333;51.976;20.144;2022-07-12T01:55:40;4.85;;;2.63;;
36663;SDS011;53333;51.976;20.144;2022-07-12T01:58:14;4.60;;;2.67;;
36663;SDS011;53333;51.976;20.144;2022-07-12T02:00:48;8.98;;;3.17;;
36663;SDS011;53333;51.976;20.144;2022-07-12T02:03:24;6.72;;;3.22;;
36663;SDS011;53333;51.976;20.144;2022-07-12T02:05:58;3.75;;;2.72;;
36663;SDS011;53333;51.976;20.144;2022-07-12T02:11:06;3.22;;;2.38;;
36663;SDS011;53333;51.976;20.144;2022-07-12T02:13:40;8.85;;;2.70;;
36663;SDS011;53333;51.976;20.144;2022-07-12T02:18:47;4.77;;;2.60;;
36663;SDS011;53333;51.976;20.144;2022-07-12T02:23:54;4.22;;;2.65;;
36663;SDS011;53333;51.976;20.144;2022-07-12T02:26:29;4.78;;;2.97;;
36663;SDS011;53333;51.976;20.144;2022-07-12T02:29:03;3.58;;;3.13;;
36663;SDS011;53333;51.976;20.144;2022-07-12T02:31:37;3.45;;;2.50;;
36663;SDS011;53333;51.976;20.144;2022-07-12T02:34:11;2.83;;;2.58;;
36663;SDS011;53333;51.976;20.144;2022-07-12T02:36:45;5.18;;;3.10;;
36663;SDS011;53333;51.976;20.144;2022-07-12T02:39:19;6.38;;;2.35;;
36663;SDS011;53333;51.976;20.144;2022-07-12T02:41:54;3.92;;;2.30;;
36663;SDS011;53333;51.976;20.144;2022-07-12T02:44:27;3.40;;;2.65;;
36663;SDS011;53333;51.976;20.144;2022-07-12T02:47:01;3.95;;;2.75;;
36663;SDS011;53333;51.976;20.144;2022-07-12T02:52:08;3.80;;;2.53;;
36663;SDS011;53333;51.976;20.144;2022-07-12T02:54:42;4.03;;;2.65;;
36663;SDS011;53333;51.976;20.144;2022-07-12T02:59:50;6.13;;;3.20;;
36663;SDS011;53333;51.976;20.144;2022-07-12T03:02:24;3.30;;;2.78;;
36663;SDS011;53333;51.976;20.144;2022-07-12T03:04:58;7.03;;;2.80;;
36663;SDS011;53333;51.976;20.144;2022-07-12T03:10:05;3.70;;;2.67;;
36663;SDS011;53333;51.976;20.144;2022-07-12T03:12:40;3.92;;;2.70;;
36663;SDS011;53333;51.976;20.144;2022-07-12T03:15:14;5.07;;;2.40;;
36663;SDS011;53333;51.976;20.144;2022-07-12T03:17:48;6.25;;;3.03;;
36663;SDS011;53333;51.976;20.144;2022-07-12T03:20:21;4.75;;;2.53;;
36663;SDS011;53333;51.976;20.144;2022-07-12T03:25:29;4.85;;;2.70;;
36663;SDS011;53333;51.976;20.144;2022-07-12T03:30:37;3.33;;;2.50;;
36663;SDS011;53333;51.976;20.144;2022-07-12T03:33:11;4.18;;;2.45;;
36663;SDS011;53333;51.976;20.144;2022-07-12T03:38:18;4.10;;;2.60;;
36663;SDS011;53333;51.976;20.144;2022-07-12T03:43:27;3.45;;;2.97;;
36663;SDS011;53333;51.976;20.144;2022-07-12T03:46:02;4.30;;;2.70;;
36663;SDS011;53333;51.976;20.144;2022-07-12T03:48:36;3.80;;;2.75;;
36663;SDS011;53333;51.976;20.144;2022-07-12T03:51:09;4.53;;;2.75;;
36663;SDS011;53333;51.976;20.144;2022-07-12T03:56:16;5.10;;;3.00;;
36663;SDS011;53333;51.976;20.144;2022-07-12T03:59:05;6.82;;;2.58;;
36663;SDS011;53333;51.976;20.144;2022-07-12T04:01:39;4.40;;;2.78;;
36663;SDS011;53333;51.976;20.144;2022-07-12T04:04:13;5.43;;;2.95;;
36663;SDS011;53333;51.976;20.144;2022-07-12T04:09:20;8.80;;;3.07;;
36663;SDS011;53333;51.976;20.144;2022-07-12T04:11:53;6.28;;;2.60;;
36663;SDS011;53333;51.976;20.144;2022-07-12T04:14:29;4.72;;;2.45;;
36663;SDS011;53333;51.976;20.144;2022-07-12T04:17:02;5.15;;;2.70;;
36663;SDS011;53333;51.976;20.144;2022-07-12T04:19:36;9.60;;;3.25;;
36663;SDS011;53333;51.976;20.144;2022-07-12T04:22:10;6.82;;;2.63;;
36663;SDS011;53333;51.976;20.144;2022-07-12T04:24:44;4.32;;;2.40;;
36663;SDS011;53333;51.976;20.144;2022-07-12T04:27:17;2.90;;;2.40;;
36663;SDS011;53333;51.976;20.144;2022-07-12T04:32:32;3.92;;;2.65;;
36663;SDS011;53333;51.976;20.144;2022-07-12T04:35:06;5.72;;;2.83;;
36663;SDS011;53333;51.976;20.144;2022-07-12T04:37:40;2.60;;;2.40;;
36663;SDS011;53333;51.976;20.144;2022-07-12T04:40:16;4.15;;;2.50;;
36663;SDS011;53333;51.976;20.144;2022-07-12T04:45:25;3.45;;;2.35;;
36663;SDS011;53333;51.976;20.144;2022-07-12T04:47:59;3.78;;;2.63;;
36663;SDS011;53333;51.976;20.144;2022-07-12T04:50:33;6.97;;;3.10;;
36663;SDS011;53333;51.976;20.144;2022-07-12T04:53:07;4.40;;;2.60;;
36663;SDS011;53333;51.976;20.144;2022-07-12T04:55:41;3.22;;;2.38;;
36663;SDS011;53333;51.976;20.144;2022-07-12T04:58:15;3.60;;;2.65;;
36663;SDS011;53333;51.976;20.144;2022-07-12T05:00:51;4.57;;;2.65;;
36663;SDS011;53333;51.976;20.144;2022-07-12T05:03:25;6.65;;;3.72;;
36663;SDS011;53333;51.976;20.144;2022-07-12T05:08:32;3.43;;;2.70;;
36663;SDS011;53333;51.976;20.144;2022-07-12T05:11:06;5.80;;;2.70;;
36663;SDS011;53333;51.976;20.144;2022-07-12T05:13:40;4.80;;;2.88;;
36663;SDS011;53333;51.976;20.144;2022-07-12T05:16:15;4.40;;;3.47;;
36663;SDS011;53333;51.976;20.144;2022-07-12T05:18:49;6.53;;;2.70;;
36663;SDS011;53333;51.976;20.144;2022-07-12T05:21:25;5.32;;;3.10;;
36663;SDS011;53333;51.976;20.144;2022-07-12T05:26:31;7.27;;;3.27;;
36663;SDS011;53333;51.976;20.144;2022-07-12T05:31:40;4.68;;;2.67;;
36663;SDS011;53333;51.976;20.144;2022-07-12T05:34:13;4.60;;;2.70;;
36663;SDS011;53333;51.976;20.144;2022-07-12T05:36:47;9.82;;;2.85;;
36663;SDS011;53333;51.976;20.144;2022-07-12T05:41:54;5.77;;;2.90;;
36663;SDS011;53333;51.976;20.144;2022-07-12T05:47:02;4.13;;;2.87;;
36663;SDS011;53333;51.976;20.144;2022-07-12T05:49:36;7.95;;;2.75;;
36663;SDS011;53333;51.976;20.144;2022-07-12T05:52:10;4.38;;;3.00;;
36663;SDS011;53333;51.976;20.144;2022-07-12T05:55:01;5.30;;;2.33;;
36663;SDS011;53333;51.976;20.144;2022-07-12T05:57:35;8.70;;;2.63;;
36663;SDS011;53333;51.976;20.144;2022-07-12T06:05:17;4.47;;;2.67;;
36663;SDS011;53333;51.976;20.144;2022-07-12T06:07:51;7.07;;;2.45;;
36663;SDS011;53333;51.976;20.144;2022-07-12T06:12:58;6.93;;;3.95;;
36663;SDS011;53333;51.976;20.144;2022-07-12T06:15:32;6.18;;;2.92;;
36663;SDS011;53333;51.976;20.144;2022-07-12T06:18:07;6.03;;;2.33;;
36663;SDS011;53333;51.976;20.144;2022-07-12T06:20:41;3.95;;;2.38;;
36663;SDS011;53333;51.976;20.144;2022-07-12T06:23:14;5.38;;;2.65;;
36663;SDS011;53333;51.976;20.144;2022-07-12T06:25:48;3.83;;;2.33;;
36663;SDS011;53333;51.976;20.144;2022-07-12T06:28:26;4.50;;;1.90;;
36663;SDS011;53333;51.976;20.144;2022-07-12T06:31:00;5.15;;;2.20;;
36663;SDS011;53333;51.976;20.144;2022-07-12T06:33:36;5.80;;;3.22;;
36663;SDS011;53333;51.976;20.144;2022-07-12T06:36:09;4.13;;;2.03;;
36663;SDS011;53333;51.976;20.144;2022-07-12T06:41:20;6.75;;;3.45;;
36663;SDS011;53333;51.976;20.144;2022-07-12T06:43:54;6.93;;;2.45;;
36663;SDS011;53333;51.976;20.144;2022-07-12T06:46:28;4.65;;;3.72;;
36663;SDS011;53333;51.976;20.144;2022-07-12T06:49:03;7.32;;;2.40;;
36663;SDS011;53333;51.976;20.144;2022-07-12T06:51:36;5.15;;;2.15;;
36663;SDS011;53333;51.976;20.144;2022-07-12T06:54:10;5.15;;;2.40;;
36663;SDS011;53333;51.976;20.144;2022-07-12T06:56:44;5.63;;;1.92;;
36663;SDS011;53333;51.976;20.144;2022-07-12T06:59:18;1.85;;;1.52;;
36663;SDS011;53333;51.976;20.144;2022-07-12T07:01:51;3.25;;;1.60;;
36663;SDS011;53333;51.976;20.144;2022-07-12T07:04:29;5.53;;;1.60;;
36663;SDS011;53333;51.976;20.144;2022-07-12T07:07:03;3.15;;;1.50;;
36663;SDS011;53333;51.976;20.144;2022-07-12T07:09:37;2.17;;;1.38;;
36663;SDS011;53333;51.976;20.144;2022-07-12T07:12:10;2.85;;;1.75;;
36663;SDS011;53333;51.976;20.144;2022-07-12T07:14:44;4.90;;;1.83;;
36663;SDS011;53333;51.976;20.144;2022-07-12T07:17:18;3.22;;;1.50;;
36663;SDS011;53333;51.976;20.144;2022-07-12T07:19:55;2.92;;;1.90;;
36663;SDS011;53333;51.976;20.144;2022-07-12T07:22:28;1.98;;;1.20;;
36663;SDS011;53333;51.976;20.144;2022-07-12T07:25:02;6.43;;;2.65;;
36663;SDS011;53333;51.976;20.144;2022-07-12T07:27:36;2.65;;;1.40;;
36663;SDS011;53333;51.976;20.144;2022-07-12T07:30:10;2.78;;;1.48;;
36663;SDS011;53333;51.976;20.144;2022-07-12T07:33:01;3.40;;;1.27;;
36663;SDS011;53333;51.976;20.144;2022-07-12T07:35:37;2.95;;;1.30;;
36663;SDS011;53333;51.976;20.144;2022-07-12T07:38:11;2.83;;;1.20;;
36663;SDS011;53333;51.976;20.144;2022-07-12T07:40:45;1.38;;;1.00;;
36663;SDS011;53333;51.976;20.144;2022-07-12T07:43:18;2.90;;;0.80;;
36663;SDS011;53333;51.976;20.144;2022-07-12T07:45:52;3.10;;;0.85;;
36663;SDS011;53333;51.976;20.144;2022-07-12T07:48:26;3.63;;;0.93;;
36663;SDS011;53333;51.976;20.144;2022-07-12T07:51:01;4.28;;;1.00;;
36663;SDS011;53333;51.976;20.144;2022-07-12T07:53:35;3.10;;;2.70;;
36663;SDS011;53333;51.976;20.144;2022-07-12T07:56:09;5.53;;;1.25;;
36663;SDS011;53333;51.976;20.144;2022-07-12T07:58:42;1.95;;;0.90;;
36663;SDS011;53333;51.976;20.144;2022-07-12T08:01:16;2.22;;;0.95;;
36663;SDS011;53333;51.976;20.144;2022-07-12T08:03:50;1.10;;;0.98;;
36663;SDS011;53333;51.976;20.144;2022-07-12T08:06:25;1.42;;;1.00;;
36663;SDS011;53333;51.976;20.144;2022-07-12T08:08:58;1.67;;;1.10;;
36663;SDS011;53333;51.976;20.144;2022-07-12T08:11:43;2.97;;;1.27;;
36663;SDS011;53333;51.976;20.144;2022-07-12T08:14:38;3.15;;;1.05;;
36663;SDS011;53333;51.976;20.144;2022-07-12T08:17:11;4.25;;;0.98;;
36663;SDS011;53333;51.976;20.144;2022-07-12T08:19:47;4.90;;;1.52;;
36663;SDS011;53333;51.976;20.144;2022-07-12T08:22:22;2.33;;;1.73;;
36663;SDS011;53333;51.976;20.144;2022-07-12T08:24:55;4.55;;;1.20;;
36663;SDS011;53333;51.976;20.144;2022-07-12T08:27:29;2.88;;;1.15;;
36663;SDS011;53333;51.976;20.144;2022-07-12T08:30:02;3.83;;;1.30;;
36663;SDS011;53333;51.976;20.144;2022-07-12T08:32:36;1.67;;;1.00;;
36663;SDS011;53333;51.976;20.144;2022-07-12T08:35:15;3.75;;;0.88;;
36663;SDS011;53333;51.976;20.144;2022-07-12T08:37:50;7.85;;;5.57;;
36663;SDS011;53333;51.976;20.144;2022-07-12T08:40:25;5.05;;;1.80;;
36663;SDS011;53333;51.976;20.144;2022-07-12T08:42:59;1.40;;;0.85;;
36663;SDS011;53333;51.976;20.144;2022-07-12T08:45:32;3.50;;;1.00;;
36663;SDS011;53333;51.976;20.144;2022-07-12T08:48:06;2.92;;;0.90;;
36663;SDS011;53333;51.976;20.144;2022-07-12T08:50:40;3.15;;;1.08;;
36663;SDS011;53333;51.976;20.144;2022-07-12T08:53:20;1.98;;;1.02;;
36663;SDS011;53333;51.976;20.144;2022-07-12T08:55:53;1.67;;;0.80;;
36663;SDS011;53333;51.976;20.144;2022-07-12T08:58:27;3.28;;;0.95;;
36663;SDS011;53333;51.976;20.144;2022-07-12T09:01:00;6.53;;;0.90;;
36663;SDS011;53333;51.976;20.144;2022-07-12T09:03:36;3.08;;;1.23;;
36663;SDS011;53333;51.976;20.144;2022-07-12T09:06:10;3.58;;;0.90;;
36663;SDS011;53333;51.976;20.144;2022-07-12T09:08:45;0.80;;;0.70;;
36663;SDS011;53333;51.976;20.144;2022-07-12T09:11:19;2.70;;;0.98;;
36663;SDS011;53333;51.976;20.144;2022-07-12T09:13:53;1.77;;;0.80;;
36663;SDS011;53333;51.976;20.144;2022-07-12T09:16:28;3.53;;;0.98;;
36663;SDS011;53333;51.976;20.144;2022-07-12T09:19:12;2.10;;;0.73;;
36663;SDS011;53333;51.976;20.144;2022-07-12T09:21:49;3.10;;;0.75;;
36663;SDS011;53333;51.976;20.144;2022-07-12T09:24:25;1.38;;;0.93;;
36663;SDS011;53333;51.976;20.144;2022-07-12T09:27:00;2.65;;;0.77;;
36663;SDS011;53333;51.976;20.144;2022-07-12T09:29:45;2.25;;;0.93;;
36663;SDS011;53333;51.976;20.144;2022-07-12T09:32:22;1.05;;;0.70;;
36663;SDS011;53333;51.976;20.144;2022-07-12T09:35:15;3.42;;;1.38;;
36663;SDS011;53333;51.976;20.144;2022-07-12T09:38:09;7.10;;;1.30;;
36663;SDS011;53333;51.976;20.144;2022-07-12T09:40:47;2.65;;;0.80;;
36663;SDS011;53333;51.976;20.144;2022-07-12T09:43:23;1.10;;;0.63;;
36663;SDS011;53333;51.976;20.144;2022-07-12T09:45:56;1.38;;;0.77;;
36663;SDS011;53333;51.976;20.144;2022-07-12T09:48:31;0.70;;;0.60;;
36663;SDS011;53333;51.976;20.144;2022-07-12T09:51:07;1.50;;;0.77;;
36663;SDS011;53333;51.976;20.144;2022-07-12T09:53:42;1.88;;;0.70;;
36663;SDS011;53333;51.976;20.144;2022-07-12T09:56:18;2.75;;;0.90;;
36663;SDS011;53333;51.976;20.144;2022-07-12T09:58:53;1.58;;;0.80;;
36663;SDS011;53333;51.976;20.144;2022-07-12T10:01:29;3.45;;;0.95;;
36663;SDS011;53333;51.976;20.144;2022-07-12T10:04:04;3.22;;;0.95;;
36663;SDS011;53333;51.976;20.144;2022-07-12T10:06:41;2.33;;;0.68;;
36663;SDS011;53333;51.976;20.144;2022-07-12T10:09:14;3.78;;;1.02;;
36663;SDS011;53333;51.976;20.144;2022-07-12T10:11:50;4.28;;;0.80;;
36663;SDS011;53333;51.976;20.144;2022-07-12T10:14:36;3.72;;;1.45;;
36663;SDS011;53333;51.976;20.144;2022-07-12T10:17:11;4.13;;;2.20;;
36663;SDS011;53333;51.976;20.144;2022-07-12T10:19:46;2.60;;;1.08;;
36663;SDS011;53333;51.976;20.144;2022-07-12T10:22:21;1.50;;;0.70;;
36663;SDS011;53333;51.976;20.144;2022-07-12T10:24:57;0.75;;;0.70;;
36663;SDS011;53333;51.976;20.144;2022-07-12T10:27:32;1.17;;;0.75;;
36663;SDS011;53333;51.976;20.144;2022-07-12T10:30:16;2.13;;;1.42;;
36663;SDS011;53333;51.976;20.144;2022-07-12T10:32:53;10.30;;;6.32;;
36663;SDS011;53333;51.976;20.144;2022-07-12T10:35:30;1.75;;;0.95;;
36663;SDS011;53333;51.976;20.144;2022-07-12T10:38:14;1.30;;;1.00;;
36663;SDS011;53333;51.976;20.144;2022-07-12T10:40:50;2.15;;;0.93;;
36663;SDS011;53333;51.976;20.144;2022-07-12T10:43:28;1.65;;;0.95;;
36663;SDS011;53333;51.976;20.144;2022-07-12T10:46:23;4.60;;;0.93;;
36663;SDS011;53333;51.976;20.144;2022-07-12T10:52:15;2.20;;;1.10;;
36663;SDS011;53333;51.976;20.144;2022-07-12T10:57:52;4.18;;;1.20;;
36663;SDS011;53333;51.976;20.144;2022-07-12T11:00:28;1.02;;;0.80;;
36663;SDS011;53333;51.976;20.144;2022-07-12T11:03:03;3.42;;;1.00;;
36663;SDS011;53333;51.976;20.144;2022-07-12T11:05:47;4.45;;;0.85;;
36663;SDS011;53333;51.976;20.144;2022-07-12T11:08:21;2.83;;;1.00;;
36663;SDS011;53333;51.976;20.144;2022-07-12T11:10:55;3.50;;;0.90;;
36663;SDS011;53333;51.976;20.144;2022-07-12T11:13:32;1.70;;;0.75;;
36663;SDS011;53333;51.976;20.144;2022-07-12T11:16:08;2.60;;;0.85;;
36663;SDS011;53333;51.976;20.144;2022-07-12T11:18:42;4.90;;;1.55;;
36663;SDS011;53333;51.976;20.144;2022-07-12T11:21:16;3.63;;;1.00;;
36663;SDS011;53333;51.976;20.144;2022-07-12T11:23:50;3.60;;;2.28;;
36663;SDS011;53333;51.976;20.144;2022-07-12T11:26:24;2.55;;;1.08;;
36663;SDS011;53333;51.976;20.144;2022-07-12T11:28:58;2.03;;;1.08;;
36663;SDS011;53333;51.976;20.144;2022-07-12T11:31:34;4.03;;;1.33;;
36663;SDS011;53333;51.976;20.144;2022-07-12T11:34:15;5.90;;;1.30;;
36663;SDS011;53333;51.976;20.144;2022-07-12T11:36:52;2.80;;;0.98;;
36663;SDS011;53333;51.976;20.144;2022-07-12T11:39:29;4.85;;;1.10;;
36663;SDS011;53333;51.976;20.144;2022-07-12T11:42:04;2.22;;;1.00;;
36663;SDS011;53333;51.976;20.144;2022-07-12T11:44:42;2.53;;;1.10;;
36663;SDS011;53333;51.976;20.144;2022-07-12T11:47:19;2.25;;;1.08;;
36663;SDS011;53333;51.976;20.144;2022-07-12T11:49:54;2.75;;;1.15;;
36663;SDS011;53333;51.976;20.144;2022-07-12T11:52:28;2.00;;;1.20;;
36663;SDS011;53333;51.976;20.144;2022-07-12T11:55:06;2.65;;;1.20;;
36663;SDS011;53333;51.976;20.144;2022-07-12T11:57:41;1.52;;;1.00;;
36663;SDS011;53333;51.976;20.144;2022-07-12T12:00:16;1.88;;;1.00;;
36663;SDS011;53333;51.976;20.144;2022-07-12T12:02:53;2.83;;;0.90;;
36663;SDS011;53333;51.976;20.144;2022-07-12T12:05:27;1.65;;;0.90;;
36663;SDS011;53333;51.976;20.144;2022-07-12T12:08:01;1.25;;;0.80;;
36663;SDS011;53333;51.976;20.144;2022-07-12T12:10:35;1.52;;;0.93;;
36663;SDS011;53333;51.976;20.144;2022-07-12T12:13:12;1.23;;;0.82;;
36663;SDS011;53333;51.976;20.144;2022-07-12T12:15:51;1.50;;;0.90;;
36663;SDS011;53333;51.976;20.144;2022-07-12T12:18:31;2.05;;;0.85;;
36663;SDS011;53333;51.976;20.144;2022-07-12T12:21:08;4.80;;;1.35;;
36663;SDS011;53333;51.976;20.144;2022-07-12T12:23:45;5.32;;;1.20;;
36663;SDS011;53333;51.976;20.144;2022-07-12T12:26:19;3.30;;;0.90;;
36663;SDS011;53333;51.976;20.144;2022-07-12T12:28:56;1.17;;;0.90;;
36663;SDS011;53333;51.976;20.144;2022-07-12T12:31:32;1.20;;;0.73;;
36663;SDS011;53333;51.976;20.144;2022-07-12T12:34:10;1.75;;;0.60;;
36663;SDS011;53333;51.976;20.144;2022-07-12T12:36:45;1.80;;;0.88;;
36663;SDS011;53333;51.976;20.144;2022-07-12T12:39:30;5.70;;;0.75;;
36663;SDS011;53333;51.976;20.144;2022-07-12T12:42:04;1.33;;;0.90;;
36663;SDS011;53333;51.976;20.144;2022-07-12T12:44:37;2.00;;;0.90;;
36663;SDS011;53333;51.976;20.144;2022-07-12T12:47:11;2.30;;;0.85;;
36663;SDS011;53333;51.976;20.144;2022-07-12T12:50:04;2.63;;;1.10;;
36663;SDS011;53333;51.976;20.144;2022-07-12T12:52:46;4.50;;;0.80;;
36663;SDS011;53333;51.976;20.144;2022-07-12T12:55:22;3.78;;;1.30;;
36663;SDS011;53333;51.976;20.144;2022-07-12T12:57:56;4.72;;;0.80;;
36663;SDS011;53333;51.976;20.144;2022-07-12T13:00:30;2.40;;;0.75;;
36663;SDS011;53333;51.976;20.144;2022-07-12T13:03:04;2.88;;;0.90;;
36663;SDS011;53333;51.976;20.144;2022-07-12T13:05:41;3.60;;;0.90;;
36663;SDS011;53333;51.976;20.144;2022-07-12T13:08:15;0.95;;;0.70;;
36663;SDS011;53333;51.976;20.144;2022-07-12T13:10:52;1.42;;;0.80;;
36663;SDS011;53333;51.976;20.144;2022-07-12T13:13:40;2.58;;;0.82;;
36663;SDS011;53333;51.976;20.144;2022-07-12T13:16:14;2.35;;;0.80;;
36663;SDS011;53333;51.976;20.144;2022-07-12T13:18:47;1.70;;;0.70;;
36663;SDS011;53333;51.976;20.144;2022-07-12T13:21:23;2.40;;;0.98;;
36663;SDS011;53333;51.976;20.144;2022-07-12T13:23:56;1.05;;;0.60;;
36663;SDS011;53333;51.976;20.144;2022-07-12T13:26:30;4.55;;;0.93;;
36663;SDS011;53333;51.976;20.144;2022-07-12T13:29:04;1.33;;;0.68;;
36663;SDS011;53333;51.976;20.144;2022-07-12T13:31:39;3.42;;;1.27;;
36663;SDS011;53333;51.976;20.144;2022-07-12T13:34:15;2.53;;;0.80;;
36663;SDS011;53333;51.976;20.144;2022-07-12T13:36:51;1.60;;;0.63;;
36663;SDS011;53333;51.976;20.144;2022-07-12T13:39:25;3.13;;;1.00;;
36663;SDS011;53333;51.976;20.144;2022-07-12T13:42:15;0.90;;;0.60;;
36663;SDS011;53333;51.976;20.144;2022-07-12T13:44:49;1.42;;;0.90;;
36663;SDS011;53333;51.976;20.144;2022-07-12T13:47:23;3.78;;;1.05;;
36663;SDS011;53333;51.976;20.144;2022-07-12T13:49:57;1.15;;;0.70;;
36663;SDS011;53333;51.976;20.144;2022-07-12T13:52:32;2.72;;;0.85;;
36663;SDS011;53333;51.976;20.144;2022-07-12T13:55:07;0.57;;;0.50;;
36663;SDS011;53333;51.976;20.144;2022-07-12T13:57:42;2.58;;;0.80;;
36663;SDS011;53333;51.976;20.144;2022-07-12T14:00:18;2.00;;;0.77;;
36663;SDS011;53333;51.976;20.144;2022-07-12T14:02:52;2.53;;;0.90;;
36663;SDS011;53333;51.976;20.144;2022-07-12T14:05:26;1.35;;;1.00;;
36663;SDS011;53333;51.976;20.144;2022-07-12T14:08:02;4.55;;;1.23;;
36663;SDS011;53333;51.976;20.144;2022-07-12T14:10:36;2.33;;;0.80;;
36663;SDS011;53333;51.976;20.144;2022-07-12T14:13:10;2.85;;;1.00;;
36663;SDS011;53333;51.976;20.144;2022-07-12T14:15:44;1.20;;;1.02;;
36663;SDS011;53333;51.976;20.144;2022-07-12T14:18:17;1.25;;;0.73;;
36663;SDS011;53333;51.976;20.144;2022-07-12T14:20:51;2.20;;;0.88;;
36663;SDS011;53333;51.976;20.144;2022-07-12T14:23:27;0.85;;;0.60;;
36663;SDS011;53333;51.976;20.144;2022-07-12T14:26:01;2.90;;;0.85;;
36663;SDS011;53333;51.976;20.144;2022-07-12T14:28:35;1.50;;;0.90;;
36663;SDS011;53333;51.976;20.144;2022-07-12T14:31:08;2.15;;;0.93;;
36663;SDS011;53333;51.976;20.144;2022-07-12T14:33:42;1.10;;;0.80;;
36663;SDS011;53333;51.976;20.144;2022-07-12T14:36:16;0.95;;;0.70;;
36663;SDS011;53333;51.976;20.144;2022-07-12T14:38:51;2.70;;;0.60;;
36663;SDS011;53333;51.976;20.144;2022-07-12T14:41:25;1.40;;;0.60;;
36663;SDS011;53333;51.976;20.144;2022-07-12T14:43:58;0.93;;;0.70;;
36663;SDS011;53333;51.976;20.144;2022-07-12T14:46:33;30.83;;;2.97;;
36663;SDS011;53333;51.976;20.144;2022-07-12T14:49:07;4.25;;;0.98;;
36663;SDS011;53333;51.976;20.144;2022-07-12T14:51:40;4.60;;;1.25;;
36663;SDS011;53333;51.976;20.144;2022-07-12T14:57:10;3.47;;;0.70;;
36663;SDS011;53333;51.976;20.144;2022-07-12T15:00:05;1.20;;;0.70;;
36663;SDS011;53333;51.976;20.144;2022-07-12T15:05:36;1.35;;;0.88;;
36663;SDS011;53333;51.976;20.144;2022-07-12T15:08:12;0.98;;;0.60;;
36663;SDS011;53333;51.976;20.144;2022-07-12T15:10:47;3.83;;;1.00;;
36663;SDS011;53333;51.976;20.144;2022-07-12T15:13:23;2.25;;;0.82;;
36663;SDS011;53333;51.976;20.144;2022-07-12T15:15:57;1.00;;;0.70;;
36663;SDS011;53333;51.976;20.144;2022-07-12T15:18:34;1.65;;;0.75;;
36663;SDS011;53333;51.976;20.144;2022-07-12T15:21:08;2.95;;;0.60;;
36663;SDS011;53333;51.976;20.144;2022-07-12T15:23:44;0.90;;;0.70;;
36663;SDS011;53333;51.976;20.144;2022-07-12T15:26:18;2.17;;;0.68;;
36663;SDS011;53333;51.976;20.144;2022-07-12T15:28:54;1.55;;;0.85;;
36663;SDS011;53333;51.976;20.144;2022-07-12T15:31:29;7.75;;;3.78;;
36663;SDS011;53333;51.976;20.144;2022-07-12T15:34:04;1.38;;;0.93;;
36663;SDS011;53333;51.976;20.144;2022-07-12T15:36:39;4.78;;;1.10;;
36663;SDS011;53333;51.976;20.144;2022-07-12T15:39:13;2.75;;;1.08;;
36663;SDS011;53333;51.976;20.144;2022-07-12T15:41:47;1.55;;;0.82;;
36663;SDS011;53333;51.976;20.144;2022-07-12T15:44:23;1.95;;;0.80;;
36663;SDS011;53333;51.976;20.144;2022-07-12T15:46:56;2.95;;;0.80;;
36663;SDS011;53333;51.976;20.144;2022-07-12T15:49:30;1.05;;;0.90;;
36663;SDS011;53333;51.976;20.144;2022-07-12T15:52:05;2.65;;;0.65;;
36663;SDS011;53333;51.976;20.144;2022-07-12T15:54:56;0.65;;;0.65;;
36663;SDS011;53333;51.976;20.144;2022-07-12T15:57:33;1.17;;;0.80;;
36663;SDS011;53333;51.976;20.144;2022-07-12T16:00:09;2.80;;;0.80;;
36663;SDS011;53333;51.976;20.144;2022-07-12T16:02:57;1.02;;;0.60;;
36663;SDS011;53333;51.976;20.144;2022-07-12T16:05:31;4.85;;;1.00;;
36663;SDS011;53333;51.976;20.144;2022-07-12T16:08:07;3.10;;;0.90;;
36663;SDS011;53333;51.976;20.144;2022-07-12T16:10:44;1.65;;;0.60;;
36663;SDS011;53333;51.976;20.144;2022-07-12T16:13:21;8.48;;;1.50;;
36663;SDS011;53333;51.976;20.144;2022-07-12T16:15:56;2.63;;;0.85;;
36663;SDS011;53333;51.976;20.144;2022-07-12T16:18:31;1.58;;;0.90;;
36663;SDS011;53333;51.976;20.144;2022-07-12T16:21:07;5.88;;;0.70;;
36663;SDS011;53333;51.976;20.144;2022-07-12T16:23:41;4.72;;;0.90;;
36663;SDS011;53333;51.976;20.144;2022-07-12T16:26:14;2.33;;;0.80;;
36663;SDS011;53333;51.976;20.144;2022-07-12T16:28:50;2.25;;;0.82;;
36663;SDS011;53333;51.976;20.144;2022-07-12T16:31:28;1.45;;;1.00;;
36663;SDS011;53333;51.976;20.144;2022-07-12T16:34:22;2.70;;;0.82;;
36663;SDS011;53333;51.976;20.144;2022-07-12T16:36:56;12.77;;;6.35;;
36663;SDS011;53333;51.976;20.144;2022-07-12T16:39:29;5.47;;;3.95;;
36663;SDS011;53333;51.976;20.144;2022-07-12T16:42:03;3.40;;;1.45;;
36663;SDS011;53333;51.976;20.144;2022-07-12T16:44:38;1.90;;;1.08;;
36663;SDS011;53333;51.976;20.144;2022-07-12T16:47:13;3.25;;;1.00;;
36663;SDS011;53333;51.976;20.144;2022-07-12T16:49:46;4.95;;;2.38;;
36663;SDS011;53333;51.976;20.144;2022-07-12T16:52:20;3.08;;;2.13;;
36663;SDS011;53333;51.976;20.144;2022-07-12T16:54:54;6.53;;;4.07;;
36663;SDS011;53333;51.976;20.144;2022-07-12T16:57:29;2.08;;;1.00;;
36663;SDS011;53333;51.976;20.144;2022-07-12T17:00:03;2.03;;;1.17;;